aviador You're here:

SKBQ Decoded Metar

BARRANQUILLA in COLOMBIA
Report Time2018-01-19 19:00:00
UTC Time2018-01-19 19:21:31
Flight Rules vfr VFR
Wind010° at 10 kt
W.Decomp.*RWY 05: 8.4 kt HW 5.4 kt LCW
W.Rank010° ranks 1
Current wind is above 010° avg. (7.6)
Visibility9999 m
Phenomena:N/A
Clouds:Scattered 015 Hf
Scattered 200 Hf
Expected CloudBase > 2,800 ft AGL from Temp-Dew spread
CeilingNone
Temp31°C (ISA +16)
Dew Point24°C (66% RH)
Heat Index36.4°C
QNH1009 hPa
Density Alt2,395 ft
Elevation33 ft
Report Wrong Elevation
Raw Report
METAR SKBQ 191900Z 01010KT 9999 SCT015 SCT200 31/24 A2981=

Extra information for SKBQ:More info

Metar Taf Metar & Taf Last 4 Metars F.Rules Stats Wind Profile Meteogram Temp Stats Airport Information Weather charts Add Link Nearby VenuesMetar ALERT Operation Metar Decoded Social comments